createdAt,value
2022-11-02T00:02:15.866Z,51.20
2022-11-02T00:08:30.293Z,51.20
2022-11-02T00:14:43.981Z,51.20
2022-11-02T00:20:57.398Z,51.00
2022-11-02T00:27:15.172Z,50.90
2022-11-02T00:33:32.987Z,50.90
2022-11-02T00:39:43.658Z,50.90
2022-11-02T00:45:58.662Z,51.00
2022-11-02T00:52:12.169Z,50.80
2022-11-02T00:58:27.162Z,50.80
2022-11-02T01:04:42.176Z,50.60
2022-11-02T01:10:54.883Z,50.60
2022-11-02T01:17:09.833Z,51.60
2022-11-02T01:23:23.739Z,51.00
2022-11-02T01:29:36.665Z,50.90
2022-11-02T01:35:48.426Z,50.90
2022-11-02T01:41:57.763Z,50.90
2022-11-02T01:48:11.597Z,51.00
2022-11-02T01:54:26.307Z,50.90
2022-11-02T02:00:38.128Z,50.50
2022-11-02T02:06:47.955Z,50.70
2022-11-02T02:13:05.263Z,50.90
2022-11-02T02:19:25.185Z,51.00
2022-11-02T02:26:07.224Z,51.20
2022-11-02T02:32:20.439Z,51.10
2022-11-02T02:38:38.232Z,50.70
2022-11-02T02:44:54.940Z,50.40
2022-11-02T02:51:06.644Z,50.40
2022-11-02T02:57:18.548Z,50.60
2022-11-02T03:03:29.784Z,50.50
2022-11-02T03:09:45.444Z,50.70
2022-11-02T03:16:01.659Z,50.70
2022-11-02T03:22:16.511Z,50.30
2022-11-02T03:28:33.121Z,50.20
2022-11-02T03:34:47.686Z,50.30
2022-11-02T03:41:02.043Z,50.70
2022-11-02T03:47:15.887Z,50.30
2022-11-02T03:53:33.453Z,50.00
2022-11-02T03:59:46.277Z,50.50
2022-11-02T04:06:02.301Z,50.10
2022-11-02T04:12:28.202Z,50.80
2022-11-02T04:18:58.492Z,50.10
2022-11-02T04:25:23.108Z,49.90
2022-11-02T04:31:35.709Z,50.00
2022-11-02T04:38:03.793Z,50.20
2022-11-02T04:44:17.673Z,50.20
2022-11-02T04:50:34.454Z,50.10
2022-11-02T04:56:48.886Z,49.60
2022-11-02T05:03:08.173Z,49.90
2022-11-02T05:09:19.104Z,50.00
2022-11-02T05:15:36.215Z,50.10
2022-11-02T05:21:50.044Z,49.80
2022-11-02T05:28:03.328Z,49.50
2022-11-02T05:34:19.003Z,49.80
2022-11-02T05:40:32.967Z,49.90
2022-11-02T05:46:45.641Z,49.90
2022-11-02T05:52:56.710Z,49.60
2022-11-02T05:59:11.326Z,49.50
2022-11-02T06:05:25.314Z,49.80
2022-11-02T06:11:37.864Z,50.00
2022-11-02T06:17:52.632Z,50.60
2022-11-02T06:24:04.090Z,49.40
2022-11-02T06:30:20.775Z,49.30
2022-11-02T06:36:32.172Z,49.60
2022-11-02T06:42:45.083Z,49.80
2022-11-02T06:48:58.057Z,49.80
2022-11-02T06:55:16.834Z,49.30
2022-11-02T07:01:29.302Z,49.50
2022-11-02T07:07:44.458Z,49.60
2022-11-02T07:13:56.206Z,49.50
2022-11-02T07:20:13.889Z,49.40
2022-11-02T07:26:24.828Z,49.00
2022-11-02T07:32:41.985Z,49.30
2022-11-02T07:38:53.986Z,49.40
2022-11-02T07:45:09.068Z,49.40
2022-11-02T07:51:20.701Z,49.30
2022-11-02T07:57:35.058Z,49.10
2022-11-02T08:03:46.995Z,49.10
2022-11-02T08:10:05.788Z,49.20
2022-11-02T08:16:17.486Z,49.10
2022-11-02T08:22:35.321Z,49.70
2022-11-02T08:28:50.090Z,49.10
2022-11-02T08:34:58.863Z,49.00
2022-11-02T08:41:13.312Z,49.10
2022-11-02T08:47:27.213Z,49.20
2022-11-02T08:53:42.940Z,49.10
2022-11-02T08:59:53.364Z,49.10
2022-11-02T09:06:05.265Z,49.20
2022-11-02T09:12:17.628Z,49.00
2022-11-02T09:18:30.850Z,49.00
2022-11-02T09:24:42.090Z,48.90
2022-11-02T09:30:54.825Z,49.10
2022-11-02T09:37:10.785Z,49.20
2022-11-02T09:43:31.108Z,49.10
2022-11-02T09:49:42.413Z,49.10
2022-11-02T09:55:55.918Z,49.00
2022-11-02T10:02:13.608Z,49.00
2022-11-02T10:08:44.178Z,49.20
2022-11-02T10:15:00.143Z,49.20
2022-11-02T10:21:16.180Z,49.20
2022-11-02T10:27:33.158Z,49.20
2022-11-02T10:33:52.848Z,49.20
2022-11-02T10:40:06.530Z,49.20
2022-11-02T10:46:25.107Z,49.30
2022-11-02T10:52:38.200Z,49.10
2022-11-02T10:58:54.271Z,49.10
2022-11-02T11:05:10.319Z,49.20
2022-11-02T11:11:27.993Z,49.40
2022-11-02T11:23:56.377Z,49.10
2022-11-02T11:30:10.232Z,49.30
2022-11-02T11:36:28.191Z,49.40
2022-11-02T11:42:39.890Z,49.40
2022-11-02T11:48:57.301Z,49.20
2022-11-02T11:55:13.807Z,48.90
2022-11-02T12:01:28.057Z,48.60
2022-11-02T12:08:01.697Z,48.40
2022-11-02T12:14:37.792Z,48.70
2022-11-02T12:21:05.517Z,48.90
2022-11-02T12:27:24.309Z,49.30
2022-11-02T12:33:47.865Z,49.00
2022-11-02T12:40:12.054Z,48.50
2022-11-02T12:46:38.316Z,48.90
2022-11-02T12:52:51.848Z,49.30
2022-11-02T12:59:07.164Z,49.70
2022-11-02T13:05:22.729Z,50.20
2022-11-02T13:11:35.139Z,49.50
2022-11-02T13:17:48.218Z,49.20
2022-11-02T13:24:06.660Z,50.00
2022-11-02T13:30:24.708Z,50.80
2022-11-02T13:36:39.607Z,50.60
2022-11-02T13:43:20.006Z,50.30
2022-11-02T13:49:34.338Z,50.00
2022-11-02T13:55:51.576Z,49.50
2022-11-02T14:02:10.442Z,49.30
2022-11-02T14:08:26.060Z,49.20
2022-11-02T14:14:34.868Z,49.40
2022-11-02T14:20:50.020Z,49.40
2022-11-02T14:27:03.553Z,49.40
2022-11-02T14:33:15.110Z,49.50
2022-11-02T14:39:30.871Z,49.30
2022-11-02T14:45:51.293Z,49.00
2022-11-02T14:52:20.866Z,48.40
2022-11-02T14:58:41.685Z,47.80
2022-11-02T15:05:00.081Z,47.50
2022-11-02T15:11:48.069Z,47.20
2022-11-02T15:18:09.614Z,47.10
2022-11-02T15:24:28.454Z,47.20
2022-11-02T15:30:41.035Z,46.50
2022-11-02T15:36:52.042Z,46.50
2022-11-02T15:43:10.669Z,46.40
2022-11-02T15:49:30.016Z,46.80
2022-11-02T15:55:49.323Z,45.90
2022-11-02T16:02:28.143Z,45.50
2022-11-02T16:08:40.991Z,45.50
2022-11-02T16:14:59.148Z,45.60
2022-11-02T16:21:16.993Z,45.80
2022-11-02T16:27:28.566Z,45.50
2022-11-02T16:33:45.229Z,45.40
2022-11-02T16:40:00.308Z,45.40
2022-11-02T16:46:13.983Z,46.00
2022-11-02T16:52:24.681Z,46.50
2022-11-02T16:58:38.242Z,46.90
2022-11-02T17:04:49.014Z,47.00
2022-11-02T17:11:06.203Z,47.10
2022-11-02T17:17:35.260Z,46.80
2022-11-02T17:23:46.817Z,46.70
2022-11-02T17:30:00.674Z,46.60
2022-11-02T17:36:15.242Z,47.30
2022-11-02T17:42:42.934Z,46.60
2022-11-02T17:48:57.649Z,46.70
2022-11-02T17:55:11.642Z,47.70
2022-11-02T18:01:30.352Z,47.10
2022-11-02T18:07:47.873Z,47.10
2022-11-02T18:13:57.752Z,47.40
2022-11-02T18:20:10.338Z,47.00
2022-11-02T18:26:22.401Z,47.20
2022-11-02T18:32:38.102Z,47.00
2022-11-02T18:38:53.977Z,47.40
2022-11-02T18:45:11.017Z,47.10
2022-11-02T18:51:23.601Z,46.90
2022-11-02T18:57:35.883Z,47.20
2022-11-02T19:03:47.300Z,47.40
2022-11-02T19:10:03.629Z,47.50
2022-11-02T19:16:13.663Z,47.10
2022-11-02T19:22:27.678Z,47.10
2022-11-02T19:28:42.385Z,47.10
2022-11-02T19:34:58.757Z,47.00
2022-11-02T19:41:17.788Z,47.10
2022-11-02T19:47:34.081Z,47.00
2022-11-02T19:53:45.639Z,47.00
2022-11-02T19:59:56.626Z,47.00
2022-11-02T20:06:08.831Z,46.90
2022-11-02T20:12:21.280Z,46.80
2022-11-02T20:18:33.710Z,47.00
2022-11-02T20:24:45.048Z,47.10
2022-11-02T20:30:56.230Z,46.90
2022-11-02T20:37:10.881Z,47.00
2022-11-02T20:43:22.903Z,46.90
2022-11-02T20:49:50.058Z,47.20
2022-11-02T20:55:49.468Z,47.30
2022-11-02T21:02:02.512Z,47.30
2022-11-02T21:08:17.816Z,47.30
2022-11-02T21:14:36.353Z,47.20
2022-11-02T21:20:57.901Z,47.40
2022-11-02T21:27:12.007Z,47.50
2022-11-02T21:33:30.533Z,47.60
2022-11-02T21:39:45.538Z,47.70
2022-11-02T21:46:06.770Z,47.80
2022-11-02T21:52:20.364Z,48.20
2022-11-02T21:58:42.914Z,48.50
2022-11-02T22:04:54.667Z,48.60
2022-11-02T22:11:14.562Z,48.90
2022-11-02T22:17:48.451Z,49.70
2022-11-02T22:23:43.904Z,50.30
2022-11-02T22:29:52.769Z,50.80
2022-11-02T22:36:05.133Z,50.70
2022-11-02T22:42:20.071Z,50.60
2022-11-02T22:48:36.675Z,50.80
2022-11-02T22:54:47.174Z,50.70
2022-11-02T23:01:04.050Z,50.80
2022-11-02T23:07:18.636Z,50.70
2022-11-02T23:13:34.331Z,50.70
2022-11-02T23:19:47.503Z,50.70
2022-11-02T23:26:08.417Z,50.80
2022-11-02T23:32:34.534Z,50.10
2022-11-02T23:39:04.211Z,50.20
2022-11-02T23:45:18.749Z,51.00
2022-11-02T23:51:48.293Z,51.00
2022-11-02T23:58:02.236Z,51.20
